createdAt,value
2022-10-01T00:02:07.971Z,100.00
2022-10-01T00:04:39.657Z,100.00
2022-10-01T00:07:10.989Z,100.00
2022-10-01T00:09:39.240Z,100.00
2022-10-01T00:12:07.927Z,100.00
2022-10-01T00:14:38.502Z,100.00
2022-10-01T00:17:06.580Z,100.00
2022-10-01T00:19:34.339Z,100.00
2022-10-01T00:22:02.381Z,100.00
2022-10-01T00:24:30.279Z,100.00
2022-10-01T00:26:58.018Z,100.00
2022-10-01T00:29:25.799Z,100.00
2022-10-01T00:31:53.948Z,100.00
2022-10-01T00:34:21.781Z,100.00
2022-10-01T00:36:49.538Z,100.00
2022-10-01T00:39:17.512Z,100.00
2022-10-01T00:41:45.184Z,100.00
2022-10-01T00:44:36.405Z,100.00
2022-10-01T00:47:31.809Z,100.00
2022-10-01T00:50:08.782Z,100.00
2022-10-01T00:52:40.769Z,100.00
2022-10-01T00:55:18.837Z,100.00
2022-10-01T00:57:47.137Z,100.00
2022-10-01T01:00:15.511Z,100.00
2022-10-01T01:02:43.840Z,100.00
2022-10-01T01:05:13.412Z,100.00
2022-10-01T01:07:45.616Z,100.00
2022-10-01T01:10:29.963Z,100.00
2022-10-01T01:13:11.582Z,100.00
2022-10-01T01:15:51.267Z,100.00
2022-10-01T01:18:34.469Z,100.00
2022-10-01T01:21:19.731Z,100.00
2022-10-01T01:24:08.443Z,100.00
2022-10-01T01:27:29.131Z,100.00
2022-10-01T01:30:18.086Z,100.00
2022-10-01T01:33:04.832Z,100.00
2022-10-01T01:35:44.137Z,100.00
2022-10-01T01:38:15.883Z,100.00
2022-10-01T01:40:47.517Z,100.00
2022-10-01T01:43:20.576Z,100.00
2022-10-01T01:45:52.622Z,100.00
2022-10-01T01:48:22.593Z,100.00
2022-10-01T01:51:06.425Z,100.00
2022-10-01T01:53:35.776Z,100.00
2022-10-01T01:56:04.933Z,100.00
2022-10-01T01:58:35.055Z,100.00
2022-10-01T02:01:04.299Z,100.00
2022-10-01T02:03:35.311Z,100.00
2022-10-01T02:06:27.215Z,100.00
2022-10-01T02:09:18.136Z,100.00
2022-10-01T02:12:00.942Z,100.00
2022-10-01T02:15:05.477Z,100.00
2022-10-01T02:17:46.538Z,100.00
2022-10-01T02:20:24.013Z,100.00
2022-10-01T02:22:59.366Z,100.00
2022-10-01T02:25:34.644Z,100.00
2022-10-01T02:28:08.680Z,100.00
2022-10-01T02:30:39.491Z,100.00
2022-10-01T02:33:09.860Z,100.00
2022-10-01T02:35:38.961Z,100.00
2022-10-01T02:38:09.581Z,100.00
2022-10-01T02:40:42.310Z,100.00
2022-10-01T02:43:18.984Z,100.00
2022-10-01T02:45:51.829Z,100.00
2022-10-01T02:48:20.006Z,100.00
2022-10-01T02:50:56.055Z,100.00
2022-10-01T02:53:31.394Z,100.00
2022-10-01T02:56:02.111Z,100.00
2022-10-01T02:58:30.349Z,100.00
2022-10-01T03:00:58.187Z,100.00
2022-10-01T03:03:26.204Z,100.00
2022-10-01T03:05:54.148Z,100.00
2022-10-01T03:08:21.894Z,100.00
2022-10-01T03:10:50.555Z,100.00
2022-10-01T03:13:19.806Z,100.00
2022-10-01T03:15:47.709Z,100.00
2022-10-01T03:18:15.452Z,100.00
2022-10-01T03:20:43.465Z,100.00
2022-10-01T03:23:11.243Z,100.00
2022-10-01T03:25:39.102Z,100.00
2022-10-01T03:28:06.989Z,100.00
2022-10-01T03:30:34.853Z,100.00
2022-10-01T03:33:02.598Z,100.00
2022-10-01T03:35:32.291Z,100.00
2022-10-01T03:38:00.021Z,100.00
2022-10-01T03:40:27.723Z,100.00
2022-10-01T03:42:55.812Z,100.00
2022-10-01T03:45:23.656Z,100.00
2022-10-01T03:47:54.521Z,100.00
2022-10-01T03:50:22.464Z,100.00
2022-10-01T03:52:51.372Z,100.00
2022-10-01T03:55:19.434Z,100.00
2022-10-01T03:57:47.569Z,100.00
2022-10-01T04:00:15.341Z,100.00
2022-10-01T04:02:43.364Z,100.00
2022-10-01T04:05:12.394Z,100.00
2022-10-01T04:07:41.616Z,100.00
2022-10-01T04:10:09.622Z,100.00
2022-10-01T04:12:37.548Z,100.00
2022-10-01T04:15:05.469Z,100.00
2022-10-01T04:17:33.589Z,100.00
2022-10-01T04:20:01.931Z,100.00
2022-10-01T04:22:29.990Z,100.00
2022-10-01T04:24:57.721Z,100.00
2022-10-01T04:27:26.351Z,100.00
2022-10-01T04:29:54.013Z,100.00
2022-10-01T04:32:22.254Z,100.00
2022-10-01T04:34:53.436Z,100.00
2022-10-01T04:37:22.454Z,100.00
2022-10-01T04:39:50.690Z,100.00
2022-10-01T04:42:18.693Z,100.00
2022-10-01T04:44:46.402Z,100.00
2022-10-01T04:47:14.161Z,100.00
2022-10-01T04:49:42.113Z,100.00
2022-10-01T04:52:09.814Z,100.00
2022-10-01T04:54:37.508Z,100.00
2022-10-01T04:57:05.577Z,100.00
2022-10-01T04:59:33.798Z,100.00
2022-10-01T05:02:01.574Z,100.00
2022-10-01T05:04:29.529Z,100.00
2022-10-01T05:06:57.232Z,100.00
2022-10-01T05:09:25.052Z,100.00
2022-10-01T05:11:53.063Z,100.00
2022-10-01T05:14:21.995Z,100.00
2022-10-01T05:16:50.232Z,100.00
2022-10-01T05:19:18.386Z,100.00
2022-10-01T05:21:46.256Z,100.00
2022-10-01T05:24:14.308Z,100.00
2022-10-01T05:26:42.188Z,100.00
2022-10-01T05:29:10.119Z,100.00
2022-10-01T05:31:38.402Z,100.00
2022-10-01T05:34:06.786Z,100.00
2022-10-01T05:36:34.533Z,100.00
2022-10-01T05:39:04.825Z,100.00
2022-10-01T05:41:33.067Z,100.00
2022-10-01T05:44:02.957Z,100.00
2022-10-01T05:46:32.027Z,100.00
2022-10-01T05:49:00.180Z,100.00
2022-10-01T05:51:28.359Z,100.00
2022-10-01T05:53:59.107Z,100.00
2022-10-01T05:56:27.163Z,100.00
2022-10-01T05:58:55.155Z,100.00
2022-10-01T06:01:22.925Z,100.00
2022-10-01T06:03:54.004Z,100.00
2022-10-01T06:06:28.248Z,100.00
2022-10-01T06:08:56.275Z,100.00
2022-10-01T06:11:24.983Z,100.00
2022-10-01T06:13:53.089Z,100.00
2022-10-01T06:16:21.373Z,100.00
2022-10-01T06:18:49.678Z,100.00
2022-10-01T06:21:17.402Z,100.00
2022-10-01T06:23:45.845Z,100.00
2022-10-01T06:26:13.475Z,100.00
2022-10-01T06:28:41.467Z,100.00
2022-10-01T06:31:09.451Z,100.00
2022-10-01T06:33:37.550Z,100.00
2022-10-01T06:36:05.594Z,100.00
2022-10-01T06:38:33.620Z,99.84
2022-10-01T06:41:04.388Z,98.43
2022-10-01T06:43:33.210Z,98.46
2022-10-01T06:46:05.437Z,98.20
2022-10-01T06:48:36.575Z,97.49
2022-10-01T06:51:05.853Z,96.55
2022-10-01T06:53:33.745Z,96.23
2022-10-01T06:56:06.770Z,95.40
2022-10-01T06:58:35.020Z,94.09
2022-10-01T07:01:04.046Z,93.15
2022-10-01T07:03:32.260Z,91.52
2022-10-01T07:06:04.478Z,89.50
2022-10-01T07:08:33.425Z,88.30
2022-10-01T07:11:02.866Z,88.38
2022-10-01T07:13:30.846Z,87.61
2022-10-01T07:15:58.592Z,85.15
2022-10-01T07:18:27.058Z,84.71
2022-10-01T07:20:57.550Z,85.35
2022-10-01T07:23:25.489Z,84.76
2022-10-01T07:25:53.591Z,84.56
2022-10-01T07:28:25.653Z,83.23
2022-10-01T07:31:06.708Z,82.08
2022-10-01T07:33:35.456Z,79.91
2022-10-01T07:36:06.069Z,78.77
2022-10-01T07:38:34.181Z,77.84
2022-10-01T07:41:03.526Z,77.44
2022-10-01T07:43:33.308Z,76.57
2022-10-01T07:46:03.548Z,75.69
2022-10-01T07:48:31.704Z,75.21
2022-10-01T07:50:59.612Z,74.26
2022-10-01T07:53:28.280Z,73.50
2022-10-01T07:55:56.855Z,72.42
2022-10-01T07:58:24.864Z,73.68
2022-10-01T08:00:58.255Z,72.73
2022-10-01T08:03:26.769Z,73.25
2022-10-01T08:05:54.706Z,72.79
2022-10-01T08:08:22.808Z,71.22
2022-10-01T08:10:50.950Z,68.89
2022-10-01T08:13:19.153Z,68.33
2022-10-01T08:15:53.666Z,65.70
2022-10-01T08:18:23.805Z,65.60
2022-10-01T08:20:52.630Z,66.38
2022-10-01T08:23:21.619Z,66.05
2022-10-01T08:25:49.281Z,65.16
2022-10-01T08:28:17.282Z,62.53
2022-10-01T08:30:45.524Z,61.05
2022-10-01T08:33:14.298Z,60.26
2022-10-01T08:35:43.693Z,58.58
2022-10-01T08:38:12.907Z,58.63
2022-10-01T08:40:50.664Z,58.12
2022-10-01T08:43:31.427Z,57.41
2022-10-01T08:46:13.778Z,57.03
2022-10-01T08:48:56.807Z,55.43
2022-10-01T08:51:32.758Z,51.86
2022-10-01T08:54:39.885Z,48.91
2022-10-01T08:57:17.593Z,47.54
2022-10-01T08:59:47.325Z,46.39
2022-10-01T09:02:27.597Z,46.30
2022-10-01T09:05:01.781Z,47.84
2022-10-01T09:07:41.958Z,48.84
2022-10-01T09:10:21.904Z,49.51
2022-10-01T09:13:14.053Z,50.99
2022-10-01T09:15:53.887Z,49.01
2022-10-01T09:18:43.060Z,46.37
2022-10-01T09:21:25.323Z,42.90
2022-10-01T09:24:11.997Z,40.79
2022-10-01T09:26:46.690Z,41.94
2022-10-01T09:29:23.926Z,43.29
2022-10-01T09:31:54.005Z,40.54
2022-10-01T09:34:37.340Z,39.01
2022-10-01T09:37:14.806Z,39.36
2022-10-01T09:40:00.382Z,40.67
2022-10-01T09:42:30.327Z,42.86
2022-10-01T09:44:58.649Z,44.13
2022-10-01T09:47:26.904Z,45.78
2022-10-01T09:49:55.256Z,47.52
2022-10-01T09:52:33.622Z,48.92
2022-10-01T09:55:26.781Z,50.19
2022-10-01T09:58:01.725Z,51.74
2022-10-01T10:00:29.809Z,52.97
2022-10-01T10:02:57.699Z,53.76
2022-10-01T10:05:28.159Z,53.93
2022-10-01T10:08:10.571Z,55.22
2022-10-01T10:10:40.529Z,56.17
2022-10-01T10:13:11.973Z,58.06
2022-10-01T10:15:51.403Z,58.71
2022-10-01T10:18:29.624Z,59.07
2022-10-01T10:20:59.354Z,59.70
2022-10-01T10:23:29.394Z,60.43
2022-10-01T10:26:05.081Z,60.85
2022-10-01T10:28:48.212Z,61.22
2022-10-01T10:31:16.120Z,61.32
2022-10-01T10:33:53.592Z,61.53
2022-10-01T10:36:28.983Z,62.80
2022-10-01T10:38:58.451Z,64.13
2022-10-01T10:41:29.076Z,64.52
2022-10-01T10:44:07.904Z,65.44
2022-10-01T10:46:42.757Z,66.25
2022-10-01T10:49:47.266Z,66.02
2022-10-01T10:52:30.369Z,65.33
2022-10-01T10:55:00.365Z,65.42
2022-10-01T10:57:34.318Z,66.35
2022-10-01T11:00:12.505Z,65.47
2022-10-01T11:02:49.033Z,66.27
2022-10-01T11:05:23.804Z,67.17
2022-10-01T11:07:56.453Z,68.39
2022-10-01T11:10:40.517Z,68.28
2022-10-01T11:13:18.601Z,66.71
2022-10-01T11:16:01.387Z,66.45
2022-10-01T11:18:36.010Z,65.87
2022-10-01T11:21:25.532Z,66.19
2022-10-01T11:24:15.134Z,64.75
2022-10-01T11:27:10.490Z,65.05
2022-10-01T11:30:11.957Z,65.90
2022-10-01T11:33:00.733Z,66.27
2022-10-01T11:35:42.331Z,65.84
2022-10-01T11:38:24.794Z,65.23
2022-10-01T11:40:59.797Z,64.88
2022-10-01T11:44:06.775Z,63.51
2022-10-01T11:47:04.582Z,63.41
2022-10-01T11:49:54.981Z,62.91
2022-10-01T11:52:33.873Z,62.91
2022-10-01T11:55:46.772Z,61.30
2022-10-01T11:58:37.414Z,60.82
2022-10-01T12:01:14.307Z,61.45
2022-10-01T12:04:02.205Z,61.40
2022-10-01T12:06:34.031Z,59.51
2022-10-01T12:09:23.581Z,59.24
2022-10-01T12:12:17.301Z,59.53
2022-10-01T12:15:00.681Z,59.06
2022-10-01T12:17:51.546Z,59.65
2022-10-01T12:20:41.401Z,60.10
2022-10-01T12:23:18.770Z,59.65
2022-10-01T12:26:27.390Z,60.43
2022-10-01T12:29:07.152Z,61.28
2022-10-01T12:31:51.583Z,61.29
2022-10-01T12:34:49.400Z,61.02
2022-10-01T12:37:50.207Z,59.66
2022-10-01T12:40:30.648Z,58.93
2022-10-01T12:43:35.905Z,59.29
2022-10-01T12:46:11.602Z,60.03
2022-10-01T12:49:22.437Z,58.75
2022-10-01T12:51:59.255Z,58.54
2022-10-01T12:54:45.843Z,59.13
2022-10-01T12:57:36.853Z,58.99
2022-10-01T13:00:13.569Z,59.49
2022-10-01T13:02:58.700Z,58.68
2022-10-01T13:05:43.264Z,58.77
2022-10-01T13:08:16.870Z,58.87
2022-10-01T13:10:57.463Z,58.88
2022-10-01T13:13:33.521Z,58.79
2022-10-01T13:16:19.063Z,60.08
2022-10-01T13:19:04.926Z,60.33
2022-10-01T13:21:45.818Z,60.69
2022-10-01T13:24:19.804Z,61.28
2022-10-01T13:26:54.149Z,61.28
2022-10-01T13:29:21.793Z,60.60
2022-10-01T13:31:58.699Z,60.55
2022-10-01T13:34:40.585Z,60.12
2022-10-01T13:37:35.545Z,59.01
2022-10-01T13:40:05.496Z,59.45
2022-10-01T13:42:44.762Z,60.05
2022-10-01T13:45:29.397Z,60.33
2022-10-01T13:48:10.424Z,60.93
2022-10-01T13:50:57.657Z,61.85
2022-10-01T13:53:27.578Z,62.35
2022-10-01T13:55:56.984Z,62.66
2022-10-01T13:58:30.476Z,63.03
2022-10-01T14:01:02.102Z,63.14
2022-10-01T14:03:43.208Z,62.33
2022-10-01T14:06:24.541Z,62.96
2022-10-01T14:09:18.414Z,63.44
2022-10-01T14:12:09.471Z,63.93
2022-10-01T14:15:12.705Z,64.05
2022-10-01T14:17:43.809Z,64.00
2022-10-01T14:20:23.994Z,64.35
2022-10-01T14:23:10.917Z,64.16
2022-10-01T14:25:51.418Z,64.11
2022-10-01T14:28:39.604Z,64.34
2022-10-01T14:31:22.235Z,64.92
2022-10-01T14:34:28.373Z,66.04
2022-10-01T14:36:57.028Z,66.17
2022-10-01T14:39:31.377Z,66.41
2022-10-01T14:41:59.210Z,67.52
2022-10-01T14:44:29.071Z,68.28
2022-10-01T14:46:59.090Z,68.50
2022-10-01T14:49:32.424Z,69.08
2022-10-01T14:52:03.807Z,70.04
2022-10-01T14:54:56.736Z,68.96
2022-10-01T14:57:38.221Z,69.25
2022-10-01T15:00:15.720Z,70.16
2022-10-01T15:02:47.910Z,70.01
2022-10-01T15:05:27.014Z,70.84
2022-10-01T15:07:59.711Z,70.84
2022-10-01T15:10:28.611Z,70.48
2022-10-01T15:12:57.596Z,70.38
2022-10-01T15:15:41.708Z,70.25
2022-10-01T15:18:14.480Z,71.32
2022-10-01T15:21:06.779Z,71.14
2022-10-01T15:23:39.452Z,71.36
2022-10-01T15:26:11.347Z,71.16
2022-10-01T15:28:39.289Z,71.53
2022-10-01T15:31:07.861Z,72.23
2022-10-01T15:33:40.991Z,72.70
2022-10-01T15:36:15.873Z,73.84
2022-10-01T15:38:48.911Z,74.22
2022-10-01T15:41:31.848Z,74.32
2022-10-01T15:44:03.373Z,74.38
2022-10-01T15:46:35.095Z,75.32
2022-10-01T15:49:24.658Z,74.84
2022-10-01T15:52:21.277Z,75.01
2022-10-01T15:54:57.548Z,75.48
2022-10-01T15:57:25.921Z,75.83
2022-10-01T15:59:56.141Z,76.73
2022-10-01T16:02:27.392Z,77.12
2022-10-01T16:05:05.146Z,77.45
2022-10-01T16:07:36.350Z,77.50
2022-10-01T16:10:35.890Z,77.93
2022-10-01T16:13:41.145Z,78.57
2022-10-01T16:16:15.228Z,79.47
2022-10-01T16:18:43.540Z,79.79
2022-10-01T16:21:12.155Z,79.92
2022-10-01T16:23:44.526Z,80.32
2022-10-01T16:26:32.389Z,80.12
2022-10-01T16:29:27.087Z,80.53
2022-10-01T16:31:56.905Z,81.15
2022-10-01T16:34:27.593Z,81.44
2022-10-01T16:36:55.432Z,81.63
2022-10-01T16:39:24.616Z,81.67
2022-10-01T16:42:06.598Z,82.09
2022-10-01T16:44:41.523Z,82.40
2022-10-01T16:47:12.055Z,82.86
2022-10-01T16:49:39.819Z,83.30
2022-10-01T16:52:08.301Z,83.46
2022-10-01T16:54:36.038Z,83.53
2022-10-01T16:57:03.831Z,83.98
2022-10-01T16:59:33.860Z,84.52
2022-10-01T17:02:02.320Z,84.72
2022-10-01T17:04:33.969Z,85.26
2022-10-01T17:07:02.313Z,85.27
2022-10-01T17:09:30.193Z,85.64
2022-10-01T17:11:58.404Z,85.58
2022-10-01T17:14:26.252Z,85.85
2022-10-01T17:16:54.076Z,85.94
2022-10-01T17:19:22.094Z,86.20
2022-10-01T17:21:50.089Z,86.64
2022-10-01T17:24:18.076Z,86.88
2022-10-01T17:26:45.822Z,87.34
2022-10-01T17:29:13.997Z,87.63
2022-10-01T17:31:44.824Z,87.68
2022-10-01T17:34:13.253Z,87.96
2022-10-01T17:36:41.229Z,88.48
2022-10-01T17:39:08.964Z,88.84
2022-10-01T17:41:36.731Z,88.66
2022-10-01T17:44:04.772Z,88.71
2022-10-01T17:46:33.160Z,89.06
2022-10-01T17:49:01.049Z,89.15
2022-10-01T17:51:28.956Z,88.98
2022-10-01T17:53:57.026Z,89.20
2022-10-01T17:56:24.910Z,89.32
2022-10-01T17:58:54.752Z,89.78
2022-10-01T18:01:22.831Z,90.28
2022-10-01T18:03:55.799Z,90.12
2022-10-01T18:06:24.817Z,90.43
2022-10-01T18:08:56.669Z,90.39
2022-10-01T18:11:28.224Z,90.71
2022-10-01T18:13:56.157Z,90.77
2022-10-01T18:16:24.371Z,90.74
2022-10-01T18:21:44.947Z,91.03
2022-10-01T18:24:12.970Z,91.32
2022-10-01T18:26:41.040Z,91.93
2022-10-01T18:29:11.529Z,92.38
2022-10-01T18:31:41.108Z,92.67
2022-10-01T18:34:43.452Z,93.16
2022-10-01T18:37:52.736Z,93.81
2022-10-01T18:40:25.100Z,94.76
2022-10-01T18:43:17.774Z,95.01
2022-10-01T18:46:09.414Z,95.41
2022-10-01T18:49:00.502Z,95.70
2022-10-01T18:51:41.929Z,96.09
2022-10-01T18:54:54.800Z,96.48
2022-10-01T18:57:25.232Z,96.74
2022-10-01T19:00:02.317Z,97.18
2022-10-01T19:02:53.476Z,97.55
2022-10-01T19:05:47.469Z,98.27
2022-10-01T19:08:33.750Z,98.51
2022-10-01T19:11:17.982Z,98.84
2022-10-01T19:14:05.234Z,98.99
2022-10-01T19:17:11.190Z,99.04
2022-10-01T19:20:00.527Z,99.37
2022-10-01T19:22:52.552Z,99.55
2022-10-01T19:25:37.679Z,99.79
2022-10-01T19:28:24.051Z,99.67
2022-10-01T19:31:08.823Z,100.00
2022-10-01T19:33:47.087Z,100.00
2022-10-01T19:36:27.749Z,100.00
2022-10-01T19:39:01.123Z,100.00
2022-10-01T19:41:39.057Z,100.00
2022-10-01T19:44:24.081Z,100.00
2022-10-01T19:46:56.023Z,100.00
2022-10-01T19:49:27.514Z,100.00
2022-10-01T19:51:59.273Z,100.00
2022-10-01T19:54:36.514Z,100.00
2022-10-01T19:57:18.152Z,100.00
2022-10-01T19:59:47.366Z,100.00
2022-10-01T20:02:26.002Z,100.00
2022-10-01T20:05:09.379Z,100.00
2022-10-01T20:08:24.975Z,100.00
2022-10-01T20:11:12.471Z,100.00
2022-10-01T20:14:01.121Z,100.00
2022-10-01T20:16:47.310Z,100.00
2022-10-01T20:19:37.656Z,100.00
2022-10-01T20:22:20.477Z,100.00
2022-10-01T20:25:15.653Z,100.00
2022-10-01T20:27:52.714Z,100.00
2022-10-01T20:30:22.089Z,100.00
2022-10-01T20:33:08.131Z,100.00
2022-10-01T20:36:01.554Z,100.00
2022-10-01T20:38:42.165Z,100.00
2022-10-01T20:41:19.996Z,100.00
2022-10-01T20:43:57.509Z,100.00
2022-10-01T20:46:36.524Z,100.00
2022-10-01T20:49:30.827Z,100.00
2022-10-01T20:52:34.320Z,100.00
2022-10-01T20:55:13.257Z,100.00
2022-10-01T20:57:53.299Z,100.00
2022-10-01T21:00:24.498Z,100.00
2022-10-01T21:03:17.953Z,100.00
2022-10-01T21:06:03.594Z,100.00
2022-10-01T21:08:40.803Z,100.00
2022-10-01T21:11:30.813Z,100.00
2022-10-01T21:14:15.934Z,100.00
2022-10-01T21:17:02.434Z,100.00
2022-10-01T21:19:38.253Z,100.00
2022-10-01T21:22:25.507Z,100.00
2022-10-01T21:25:17.554Z,100.00
2022-10-01T21:28:18.732Z,100.00
2022-10-01T21:30:55.611Z,100.00
2022-10-01T21:33:32.616Z,100.00
2022-10-01T21:36:10.797Z,100.00
2022-10-01T21:38:58.767Z,100.00
2022-10-01T21:41:49.222Z,100.00
2022-10-01T21:44:47.293Z,100.00
2022-10-01T21:47:41.280Z,100.00
2022-10-01T21:50:46.739Z,100.00
2022-10-01T21:53:28.956Z,100.00
2022-10-01T21:56:08.120Z,100.00
2022-10-01T21:58:50.528Z,100.00
2022-10-01T22:02:03.399Z,100.00
2022-10-01T22:04:40.435Z,100.00
2022-10-01T22:07:17.492Z,100.00
2022-10-01T22:10:18.769Z,100.00
2022-10-01T22:12:55.033Z,100.00
2022-10-01T22:15:43.637Z,100.00
2022-10-01T22:18:18.257Z,100.00
2022-10-01T22:20:46.896Z,100.00
2022-10-01T22:23:18.385Z,100.00
2022-10-01T22:26:00.347Z,100.00
2022-10-01T22:28:37.717Z,100.00
2022-10-01T22:31:10.805Z,100.00
2022-10-01T22:33:52.786Z,100.00
2022-10-01T22:36:54.370Z,100.00
2022-10-01T22:39:29.478Z,100.00
2022-10-01T22:42:21.464Z,100.00
2022-10-01T22:44:49.328Z,100.00
2022-10-01T22:47:34.701Z,100.00
2022-10-01T22:50:26.889Z,100.00
2022-10-01T22:53:07.951Z,100.00
2022-10-01T22:55:47.876Z,100.00
2022-10-01T22:59:02.687Z,100.00
2022-10-01T23:02:50.240Z,100.00
2022-10-01T23:05:39.149Z,100.00
2022-10-01T23:08:18.328Z,100.00
2022-10-01T23:11:29.101Z,100.00
2022-10-01T23:14:14.871Z,100.00
2022-10-01T23:16:48.097Z,100.00
2022-10-01T23:19:40.308Z,100.00
2022-10-01T23:22:28.615Z,100.00
2022-10-01T23:25:10.242Z,100.00
2022-10-01T23:27:59.124Z,100.00
2022-10-01T23:30:50.747Z,100.00
2022-10-01T23:33:49.623Z,100.00
2022-10-01T23:36:34.050Z,100.00
2022-10-01T23:39:24.389Z,100.00
2022-10-01T23:42:07.403Z,100.00
2022-10-01T23:44:50.187Z,100.00
2022-10-01T23:47:30.537Z,100.00
2022-10-01T23:50:02.086Z,100.00
2022-10-01T23:52:47.365Z,100.00
2022-10-01T23:56:07.864Z,100.00
2022-10-01T23:58:50.742Z,100.00
